createdAt,value
2017-12-17T00:00:53.800Z,9.02
2017-12-17T00:03:21.581Z,9.70
2017-12-17T00:05:49.359Z,9.10
2017-12-17T00:08:17.188Z,10.70
2017-12-17T00:10:44.997Z,9.40
2017-12-17T00:13:12.765Z,10.15
2017-12-17T00:15:40.529Z,12.18
2017-12-17T00:18:08.293Z,6.80
2017-12-17T00:20:36.057Z,10.30
2017-12-17T00:23:03.825Z,9.43
2017-12-17T00:25:31.610Z,7.97
2017-12-17T00:27:59.400Z,9.18
2017-12-17T00:30:27.216Z,7.62
2017-12-17T00:32:54.980Z,8.48
2017-12-17T00:35:22.770Z,7.80
2017-12-17T00:37:50.528Z,8.23
2017-12-17T00:40:18.294Z,7.55
2017-12-17T00:42:46.080Z,7.82
2017-12-17T00:45:13.877Z,7.03
2017-12-17T00:47:41.670Z,8.23
2017-12-17T00:50:09.446Z,8.07
2017-12-17T00:52:37.240Z,7.18
2017-12-17T00:55:05.032Z,8.20
2017-12-17T00:57:32.797Z,7.18
2017-12-17T01:00:00.574Z,7.82
2017-12-17T01:02:28.367Z,6.80
2017-12-17T01:04:56.144Z,7.70
2017-12-17T01:07:23.954Z,8.60
2017-12-17T01:09:51.764Z,5.78
2017-12-17T01:12:19.548Z,6.85
2017-12-17T01:14:47.356Z,8.45
2017-12-17T01:17:15.160Z,7.97
2017-12-17T01:19:42.968Z,9.18
2017-12-17T01:22:10.750Z,8.30
2017-12-17T01:24:38.520Z,8.05
2017-12-17T01:27:06.312Z,7.80
2017-12-17T01:29:34.089Z,8.30
2017-12-17T01:32:01.873Z,8.30
2017-12-17T01:34:29.668Z,7.50
2017-12-17T01:36:57.574Z,8.38
2017-12-17T01:39:25.389Z,8.20
2017-12-17T01:41:53.175Z,8.43
2017-12-17T01:44:20.946Z,9.55
2017-12-17T01:46:48.756Z,8.68
2017-12-17T01:49:16.618Z,8.98
2017-12-17T01:51:44.417Z,8.50
2017-12-17T01:54:12.200Z,7.25
2017-12-17T01:56:40.069Z,8.15
2017-12-17T01:59:07.864Z,8.10
2017-12-17T02:01:35.649Z,6.57
2017-12-17T02:04:03.447Z,7.75
2017-12-17T02:06:31.249Z,9.40
2017-12-17T02:08:59.031Z,9.02
2017-12-17T02:11:26.811Z,7.78
2017-12-17T02:13:54.626Z,7.87
2017-12-17T02:16:22.403Z,7.82
2017-12-17T02:18:50.193Z,7.80
2017-12-17T02:21:17.986Z,8.32
2017-12-17T02:23:45.770Z,9.40
2017-12-17T02:26:13.523Z,8.90
2017-12-17T02:28:41.285Z,8.50
2017-12-17T02:31:09.061Z,8.48
2017-12-17T02:33:36.852Z,8.25
2017-12-17T02:36:04.626Z,10.15
2017-12-17T02:38:32.435Z,8.90
2017-12-17T02:41:00.284Z,8.93
2017-12-17T02:43:27.984Z,9.15
2017-12-17T02:45:56.747Z,8.48
2017-12-17T02:48:24.561Z,8.77
2017-12-17T02:50:52.335Z,9.00
2017-12-17T02:53:20.093Z,9.13
2017-12-17T02:55:47.915Z,8.98
2017-12-17T02:58:15.678Z,8.60
2017-12-17T03:00:43.445Z,8.13
2017-12-17T03:03:11.209Z,8.30
2017-12-17T03:05:38.986Z,7.80
2017-12-17T03:08:06.761Z,6.72
2017-12-17T03:10:34.550Z,7.60
2017-12-17T03:13:02.379Z,7.43
2017-12-17T03:15:30.166Z,6.00
2017-12-17T03:17:57.927Z,6.50
2017-12-17T03:20:25.711Z,6.07
2017-12-17T03:22:53.507Z,5.85
2017-12-17T03:25:21.309Z,6.00
2017-12-17T03:27:49.072Z,6.05
2017-12-17T03:30:16.837Z,6.15
2017-12-17T03:32:44.625Z,4.95
2017-12-17T03:35:12.436Z,5.50
2017-12-17T03:37:40.213Z,5.05
2017-12-17T03:40:07.972Z,5.05
2017-12-17T03:42:35.764Z,5.28
2017-12-17T03:45:03.522Z,5.57
2017-12-17T03:47:31.305Z,3.92
2017-12-17T03:49:59.069Z,3.97
2017-12-17T03:52:26.878Z,4.65
2017-12-17T03:54:54.723Z,4.25
2017-12-17T03:57:22.558Z,3.10
2017-12-17T03:59:50.337Z,3.47
2017-12-17T04:02:18.111Z,2.78
2017-12-17T04:04:45.893Z,2.72
2017-12-17T04:07:13.684Z,3.50
2017-12-17T04:09:41.475Z,3.30
2017-12-17T04:12:09.248Z,2.90
2017-12-17T04:14:37.021Z,2.90
2017-12-17T04:17:04.823Z,3.05
2017-12-17T04:19:32.622Z,3.75
2017-12-17T04:22:00.408Z,2.65
2017-12-17T04:24:28.180Z,3.12
2017-12-17T04:26:55.996Z,2.92
2017-12-17T04:29:23.786Z,3.30
2017-12-17T04:31:51.571Z,3.40
2017-12-17T04:34:19.364Z,2.50
2017-12-17T04:36:47.126Z,4.43
2017-12-17T04:39:14.937Z,3.20
2017-12-17T04:41:42.694Z,2.55
2017-12-17T04:44:10.477Z,2.55
2017-12-17T04:46:38.264Z,2.53
2017-12-17T04:49:06.028Z,2.28
2017-12-17T04:51:33.811Z,2.33
2017-12-17T04:54:01.634Z,2.40
2017-12-17T04:56:29.402Z,2.30
2017-12-17T04:58:57.168Z,2.12
2017-12-17T05:01:24.964Z,3.20
2017-12-17T05:03:52.749Z,2.50
2017-12-17T05:06:20.517Z,2.17
2017-12-17T05:08:48.299Z,2.45
2017-12-17T05:11:16.079Z,2.92
2017-12-17T05:13:43.855Z,2.92
2017-12-17T05:16:11.649Z,3.05
2017-12-17T05:18:39.413Z,3.17
2017-12-17T05:21:07.176Z,2.97
2017-12-17T05:23:34.943Z,3.30
2017-12-17T05:26:02.724Z,3.33
2017-12-17T05:28:30.532Z,3.20
2017-12-17T05:30:58.303Z,2.90
2017-12-17T05:33:26.064Z,3.33
2017-12-17T05:35:53.860Z,3.70
2017-12-17T05:38:21.640Z,3.40
2017-12-17T05:40:49.412Z,4.07
2017-12-17T05:43:17.177Z,3.75
2017-12-17T05:45:44.960Z,3.58
2017-12-17T05:48:12.783Z,4.05
2017-12-17T05:50:40.588Z,3.70
2017-12-17T05:53:08.351Z,4.28
2017-12-17T05:55:36.115Z,4.50
2017-12-17T05:58:03.880Z,4.35
2017-12-17T06:00:31.729Z,4.97
2017-12-17T06:02:59.506Z,5.45
2017-12-17T06:05:27.274Z,5.70
2017-12-17T06:07:55.056Z,7.10
2017-12-17T06:10:22.855Z,7.00
2017-12-17T06:12:50.665Z,6.37
2017-12-17T06:15:18.445Z,6.15
2017-12-17T06:17:46.212Z,5.40
2017-12-17T06:20:13.976Z,6.87
2017-12-17T06:22:41.745Z,5.62
2017-12-17T06:25:09.500Z,6.80
2017-12-17T06:27:37.264Z,5.82
2017-12-17T06:30:05.020Z,6.35
2017-12-17T06:32:32.784Z,7.32
2017-12-17T06:35:00.562Z,6.43
2017-12-17T06:37:28.326Z,6.68
2017-12-17T06:39:56.086Z,6.78
2017-12-17T06:42:23.860Z,6.68
2017-12-17T06:44:51.628Z,6.07
2017-12-17T06:47:19.440Z,6.68
2017-12-17T06:49:47.204Z,6.68
2017-12-17T06:52:15.050Z,6.55
2017-12-17T06:54:42.804Z,6.50
2017-12-17T06:57:10.582Z,6.30
2017-12-17T06:59:38.375Z,6.87
2017-12-17T07:02:06.172Z,7.07
2017-12-17T07:04:33.925Z,6.47
2017-12-17T07:07:01.676Z,6.47
2017-12-17T07:09:29.463Z,6.00
2017-12-17T07:11:57.248Z,6.80
2017-12-17T07:14:25.056Z,7.55
2017-12-17T07:16:52.885Z,6.90
2017-12-17T07:19:20.642Z,7.10
2017-12-17T07:21:48.405Z,7.62
2017-12-17T07:24:16.169Z,6.30
2017-12-17T07:26:43.933Z,6.45
2017-12-17T07:29:11.698Z,8.00
2017-12-17T07:31:39.468Z,7.05
2017-12-17T07:34:07.272Z,7.18
2017-12-17T07:36:35.063Z,7.07
2017-12-17T07:39:02.859Z,7.35
2017-12-17T07:41:30.660Z,7.18
2017-12-17T07:43:58.460Z,6.80
2017-12-17T07:46:26.251Z,6.40
2017-12-17T07:48:54.040Z,6.55
2017-12-17T07:51:21.851Z,7.78
2017-12-17T07:53:49.641Z,6.95
2017-12-17T07:56:17.413Z,6.60
2017-12-17T07:58:45.212Z,6.72
2017-12-17T08:01:13.006Z,7.12
2017-12-17T08:03:40.975Z,6.82
2017-12-17T08:06:08.757Z,7.40
2017-12-17T08:08:36.575Z,8.13
2017-12-17T08:11:04.373Z,7.70
2017-12-17T08:13:32.156Z,7.85
2017-12-17T08:16:00.556Z,8.60
2017-12-17T08:18:28.347Z,7.93
2017-12-17T08:20:56.120Z,7.80
2017-12-17T08:23:23.916Z,8.52
2017-12-17T08:25:51.692Z,7.97
2017-12-17T08:28:19.484Z,8.30
2017-12-17T08:30:47.261Z,8.23
2017-12-17T08:33:15.044Z,7.60
2017-12-17T08:35:42.833Z,7.62
2017-12-17T08:38:10.609Z,7.50
2017-12-17T08:40:38.372Z,8.27
2017-12-17T08:43:06.152Z,8.57
2017-12-17T08:45:33.978Z,7.60
2017-12-17T08:48:01.753Z,7.05
2017-12-17T08:50:29.528Z,8.82
2017-12-17T08:52:57.333Z,6.28
2017-12-17T08:55:25.124Z,8.18
2017-12-17T08:57:52.924Z,9.15
2017-12-17T09:00:20.699Z,8.60
2017-12-17T09:02:48.467Z,7.50
2017-12-17T09:05:16.236Z,7.75
2017-12-17T09:07:44.055Z,7.95
2017-12-17T09:10:11.862Z,7.40
2017-12-17T09:12:39.660Z,8.23
2017-12-17T09:15:07.467Z,8.00
2017-12-17T09:17:35.265Z,7.28
2017-12-17T09:20:03.050Z,7.90
2017-12-17T09:22:30.828Z,7.85
2017-12-17T09:24:58.621Z,7.80
2017-12-17T09:27:26.400Z,6.70
2017-12-17T09:29:54.172Z,6.78
2017-12-17T09:32:22.610Z,6.43
2017-12-17T09:34:50.404Z,6.82
2017-12-17T09:37:18.216Z,7.00
2017-12-17T09:39:46.030Z,8.63
2017-12-17T09:42:13.813Z,9.23
2017-12-17T09:44:41.604Z,7.00
2017-12-17T09:47:09.393Z,7.90
2017-12-17T09:49:37.319Z,7.60
2017-12-17T09:52:05.102Z,7.10
2017-12-17T09:54:32.940Z,7.22
2017-12-17T09:57:00.736Z,7.30
2017-12-17T09:59:28.530Z,7.68
2017-12-17T10:01:56.313Z,7.32
2017-12-17T10:04:25.005Z,8.18
2017-12-17T10:06:52.839Z,6.40
2017-12-17T10:09:20.697Z,6.90
2017-12-17T10:11:48.474Z,7.80
2017-12-17T10:14:16.248Z,6.93
2017-12-17T10:16:44.044Z,6.40
2017-12-17T10:19:11.808Z,6.30
2017-12-17T10:21:39.596Z,6.27
2017-12-17T10:24:07.385Z,6.73
2017-12-17T10:26:35.229Z,6.60
2017-12-17T10:29:03.008Z,7.27
2017-12-17T10:31:30.772Z,6.50
2017-12-17T10:33:58.532Z,6.50
2017-12-17T10:36:26.338Z,5.80
2017-12-17T10:38:54.110Z,5.90
2017-12-17T10:41:21.916Z,5.33
2017-12-17T10:43:49.696Z,6.17
2017-12-17T10:46:17.487Z,5.90
2017-12-17T10:48:45.252Z,5.30
2017-12-17T10:51:13.023Z,5.50
2017-12-17T10:53:40.793Z,4.70
2017-12-17T10:56:08.553Z,4.93
2017-12-17T10:58:36.334Z,5.17
2017-12-17T11:01:04.115Z,4.90
2017-12-17T11:03:31.876Z,4.60
2017-12-17T11:05:59.641Z,4.77
2017-12-17T11:08:27.446Z,4.70
2017-12-17T11:10:55.227Z,4.70
2017-12-17T11:13:23.814Z,4.93
2017-12-17T11:15:51.652Z,5.70
2017-12-17T11:18:19.481Z,5.47
2017-12-17T11:20:47.249Z,5.60
2017-12-17T11:23:15.073Z,5.57
2017-12-17T11:25:42.874Z,6.60
2017-12-17T11:28:10.644Z,6.73
2017-12-17T11:30:38.434Z,5.17
2017-12-17T11:33:06.258Z,5.53
2017-12-17T11:35:34.047Z,5.00
2017-12-17T11:38:01.852Z,5.18
2017-12-17T11:40:29.659Z,4.50
2017-12-17T11:42:57.436Z,5.35
2017-12-17T11:45:25.211Z,5.18
2017-12-17T11:47:53.018Z,4.60
2017-12-17T11:50:20.816Z,6.00
2017-12-17T11:52:48.597Z,5.43
2017-12-17T11:55:16.405Z,5.10
2017-12-17T11:57:44.240Z,6.10
2017-12-17T12:00:12.049Z,4.90
2017-12-17T12:02:39.844Z,6.50
2017-12-17T12:05:07.642Z,5.40
2017-12-17T12:07:35.448Z,5.85
2017-12-17T12:10:03.231Z,5.90
2017-12-17T12:12:31.016Z,6.55
2017-12-17T12:14:58.850Z,5.57
2017-12-17T12:17:26.579Z,6.32
2017-12-17T12:19:54.352Z,6.28
2017-12-17T12:22:22.151Z,6.30
2017-12-17T12:24:49.936Z,5.72
2017-12-17T12:27:17.764Z,6.47
2017-12-17T12:29:45.543Z,5.90
2017-12-17T12:32:13.874Z,6.70
2017-12-17T12:34:41.772Z,7.60
2017-12-17T12:37:09.642Z,6.80
2017-12-17T12:39:37.434Z,6.30
2017-12-17T12:42:05.218Z,6.75
2017-12-17T12:44:33.020Z,6.87
2017-12-17T12:47:01.535Z,6.03
2017-12-17T12:49:29.500Z,6.30
2017-12-17T12:51:57.357Z,6.82
2017-12-17T12:54:25.150Z,5.45
2017-12-17T12:56:52.930Z,5.85
2017-12-17T12:59:20.733Z,5.97
2017-12-17T13:01:48.524Z,6.45
2017-12-17T13:04:16.360Z,7.43
2017-12-17T13:06:44.227Z,7.43
2017-12-17T13:09:12.055Z,7.15
2017-12-17T13:11:39.855Z,7.90
2017-12-17T13:14:07.701Z,7.82
2017-12-17T13:16:35.570Z,8.98
2017-12-17T13:19:03.380Z,9.02
2017-12-17T13:21:31.340Z,8.25
2017-12-17T13:23:59.137Z,8.75
2017-12-17T13:26:26.929Z,8.10
2017-12-17T13:28:54.716Z,8.95
2017-12-17T13:31:22.533Z,9.88
2017-12-17T13:33:50.320Z,8.50
2017-12-17T13:36:18.143Z,10.93
2017-12-17T13:38:45.916Z,8.65
2017-12-17T13:41:13.761Z,8.98
2017-12-17T13:43:41.539Z,10.20
2017-12-17T13:46:09.365Z,9.73
2017-12-17T13:48:37.137Z,9.27
2017-12-17T13:51:05.006Z,10.32
2017-12-17T13:53:32.779Z,9.57
2017-12-17T13:56:00.580Z,10.35
2017-12-17T13:58:28.390Z,10.48
2017-12-17T14:00:56.200Z,10.90
2017-12-17T14:03:23.997Z,11.52
2017-12-17T14:05:52.836Z,9.40
2017-12-17T14:08:20.589Z,9.85
2017-12-17T14:10:48.384Z,10.68
2017-12-17T14:13:16.175Z,10.73
2017-12-17T14:15:43.983Z,11.27
2017-12-17T14:18:12.668Z,10.55
2017-12-17T14:20:40.433Z,13.05
2017-12-17T14:23:08.204Z,10.32
2017-12-17T14:25:36.802Z,9.95
2017-12-17T14:28:04.608Z,9.27
2017-12-17T14:30:32.408Z,9.35
2017-12-17T14:33:00.201Z,4.25
2017-12-17T14:35:27.992Z,7.55
2017-12-17T14:37:55.800Z,7.72
2017-12-17T14:40:23.569Z,7.40
2017-12-17T14:42:51.414Z,7.47
2017-12-17T14:45:22.178Z,7.93
2017-12-17T14:47:50.003Z,8.63
2017-12-17T14:50:17.829Z,8.50
2017-12-17T14:52:45.660Z,9.10
2017-12-17T14:55:13.488Z,9.02
2017-12-17T14:57:41.328Z,8.77
2017-12-17T15:00:09.183Z,7.82
2017-12-17T15:02:37.022Z,8.95
2017-12-17T15:05:04.878Z,10.13
2017-12-17T15:07:32.721Z,10.00
2017-12-17T15:10:00.543Z,11.70
2017-12-17T15:12:28.396Z,10.40
2017-12-17T15:14:56.244Z,11.88
2017-12-17T15:17:24.096Z,12.07
2017-12-17T15:19:51.937Z,12.52
2017-12-17T15:22:19.780Z,12.73
2017-12-17T15:24:48.862Z,10.57
2017-12-17T15:27:16.708Z,12.75
2017-12-17T15:29:44.552Z,14.30
2017-12-17T15:32:12.385Z,14.68
2017-12-17T15:34:40.225Z,15.65
2017-12-17T15:37:08.066Z,14.07
2017-12-17T15:39:35.929Z,15.52
2017-12-17T15:42:03.831Z,15.40
2017-12-17T15:44:31.698Z,15.55
2017-12-17T15:46:59.553Z,15.57
2017-12-17T15:49:27.418Z,15.32
2017-12-17T15:51:55.260Z,16.20
2017-12-17T15:54:23.104Z,14.60
2017-12-17T15:56:51.982Z,14.23
2017-12-17T15:59:19.864Z,15.45
2017-12-17T16:01:47.712Z,14.80
2017-12-17T16:04:16.277Z,14.25
2017-12-17T16:06:44.129Z,15.18
2017-12-17T16:09:11.993Z,14.60
2017-12-17T16:11:39.880Z,14.75
2017-12-17T16:14:07.727Z,15.73
2017-12-17T16:16:35.573Z,14.73
2017-12-17T16:19:03.502Z,14.68
2017-12-17T16:21:31.352Z,17.00
2017-12-17T16:23:59.217Z,13.68
2017-12-17T16:26:27.091Z,15.38
2017-12-17T16:28:55.154Z,15.35
2017-12-17T16:31:22.988Z,16.55
2017-12-17T16:33:50.849Z,17.80
2017-12-17T16:36:18.713Z,12.27
2017-12-17T16:38:46.590Z,17.08
2017-12-17T16:41:14.456Z,16.87
2017-12-17T16:43:42.294Z,12.43
2017-12-17T16:46:10.154Z,18.27
2017-12-17T16:48:37.975Z,18.98
2017-12-17T16:51:05.816Z,20.77
2017-12-17T16:53:33.663Z,18.80
2017-12-17T16:56:01.510Z,18.40
2017-12-17T16:58:29.344Z,19.87
2017-12-17T17:00:57.171Z,17.08
2017-12-17T17:03:25.152Z,20.67
2017-12-17T17:05:52.984Z,21.30
2017-12-17T17:08:20.844Z,20.85
2017-12-17T17:10:48.708Z,23.45
2017-12-17T17:13:16.572Z,19.40
2017-12-17T17:15:44.441Z,20.37
2017-12-17T17:18:12.320Z,21.17
2017-12-17T17:20:40.213Z,23.30
2017-12-17T17:23:08.053Z,22.87
2017-12-17T17:25:35.876Z,21.77
2017-12-17T17:28:03.790Z,22.33
2017-12-17T17:30:31.620Z,24.23
2017-12-17T17:32:59.437Z,25.85
2017-12-17T17:35:27.282Z,25.77
2017-12-17T17:37:55.128Z,23.58
2017-12-17T17:40:22.969Z,22.50
2017-12-17T17:42:50.828Z,22.27
2017-12-17T17:45:18.744Z,24.55
2017-12-17T17:47:46.631Z,23.55
2017-12-17T17:50:14.524Z,22.62
2017-12-17T17:52:42.349Z,23.33
2017-12-17T17:55:10.192Z,22.00
2017-12-17T17:57:38.100Z,21.35
2017-12-17T18:00:05.924Z,21.15
2017-12-17T18:02:33.748Z,19.67
2017-12-17T18:05:01.556Z,18.15
2017-12-17T18:07:29.378Z,21.87
2017-12-17T18:09:57.236Z,24.33
2017-12-17T18:12:25.136Z,20.92
2017-12-17T18:14:52.979Z,21.00
2017-12-17T18:17:20.812Z,21.48
2017-12-17T18:19:48.678Z,20.88
2017-12-17T18:22:16.501Z,22.67
2017-12-17T18:24:44.334Z,20.77
2017-12-17T18:27:12.181Z,22.42
2017-12-17T18:29:40.009Z,20.23
2017-12-17T18:32:07.874Z,20.25
2017-12-17T18:34:35.700Z,19.52
2017-12-17T18:37:03.564Z,18.83
2017-12-17T18:39:31.422Z,18.90
2017-12-17T18:41:59.249Z,19.27
2017-12-17T18:44:27.073Z,20.92
2017-12-17T18:46:54.923Z,25.02
2017-12-17T18:49:22.795Z,24.12
2017-12-17T18:51:50.656Z,25.80
2017-12-17T18:54:18.493Z,22.80
2017-12-17T18:56:46.394Z,24.25
2017-12-17T18:59:14.258Z,23.52
2017-12-17T19:01:42.126Z,22.45
2017-12-17T19:04:09.988Z,22.95
2017-12-17T19:06:37.891Z,22.50
2017-12-17T19:09:05.734Z,24.02
2017-12-17T19:11:33.629Z,22.62
2017-12-17T19:14:01.508Z,22.25
2017-12-17T19:16:29.376Z,23.20
2017-12-17T19:18:57.260Z,22.70
2017-12-17T19:21:25.145Z,22.35
2017-12-17T19:23:52.974Z,28.35
2017-12-17T19:26:20.805Z,24.48
2017-12-17T19:28:48.662Z,26.52
2017-12-17T19:31:16.555Z,20.42
2017-12-17T19:33:44.432Z,22.45
2017-12-17T19:36:12.296Z,24.48
2017-12-17T19:38:40.157Z,21.23
2017-12-17T19:41:08.022Z,24.20
2017-12-17T19:43:35.865Z,23.92
2017-12-17T19:46:03.753Z,23.27
2017-12-17T19:48:31.608Z,23.42
2017-12-17T19:50:59.477Z,22.08
2017-12-17T19:53:27.351Z,23.00
2017-12-17T19:55:55.218Z,23.48
2017-12-17T19:58:23.055Z,21.05
2017-12-17T20:00:50.933Z,26.80
2017-12-17T20:03:18.776Z,23.77
2017-12-17T20:05:46.640Z,24.55
2017-12-17T20:08:14.515Z,23.05
2017-12-17T20:10:42.381Z,23.17
2017-12-17T20:13:10.215Z,21.75
2017-12-17T20:15:38.068Z,24.48
2017-12-17T20:18:05.917Z,24.12
2017-12-17T20:20:33.780Z,20.77
2017-12-17T20:23:01.644Z,22.05
2017-12-17T20:25:29.524Z,22.35
2017-12-17T20:27:57.378Z,21.70
2017-12-17T20:30:25.246Z,21.37
2017-12-17T20:32:53.113Z,18.80
2017-12-17T20:35:20.985Z,21.05
2017-12-17T20:37:48.846Z,22.77
2017-12-17T20:40:16.712Z,20.80
2017-12-17T20:42:44.589Z,20.85
2017-12-17T20:45:12.416Z,22.08
2017-12-17T20:47:40.321Z,22.37
2017-12-17T20:50:08.140Z,22.92
2017-12-17T20:52:35.947Z,21.55
2017-12-17T20:55:03.793Z,20.15
2017-12-17T20:57:31.628Z,22.25
2017-12-17T20:59:59.465Z,20.60
2017-12-17T21:02:27.293Z,20.75
2017-12-17T21:04:55.112Z,22.20
2017-12-17T21:07:23.048Z,21.87
2017-12-17T21:09:50.867Z,21.85
2017-12-17T21:12:18.700Z,21.27
2017-12-17T21:14:46.531Z,21.80
2017-12-17T21:17:14.341Z,23.45
2017-12-17T21:19:42.179Z,21.17
2017-12-17T21:22:09.988Z,22.40
2017-12-17T21:24:37.875Z,24.33
2017-12-17T21:27:05.972Z,22.13
2017-12-17T21:29:33.821Z,21.15
2017-12-17T21:32:01.636Z,20.73
2017-12-17T21:34:29.509Z,20.45
2017-12-17T21:36:57.357Z,21.90
2017-12-17T21:39:25.204Z,20.60
2017-12-17T21:41:53.051Z,23.67
2017-12-17T21:44:20.888Z,21.02
2017-12-17T21:46:48.748Z,23.95
2017-12-17T21:49:17.167Z,24.30
2017-12-17T21:51:45.010Z,22.52
2017-12-17T21:54:12.849Z,24.80
2017-12-17T21:56:40.676Z,23.67
2017-12-17T21:59:08.520Z,24.02
2017-12-17T22:01:36.374Z,25.77
2017-12-17T22:04:04.240Z,24.73
2017-12-17T22:06:32.071Z,24.42
2017-12-17T22:08:59.938Z,24.30
2017-12-17T22:11:27.759Z,24.27
2017-12-17T22:13:56.128Z,27.67
2017-12-17T22:16:23.961Z,27.17
2017-12-17T22:18:51.773Z,25.50
2017-12-17T22:21:19.592Z,28.02
2017-12-17T22:23:47.426Z,25.40
2017-12-17T22:26:15.252Z,29.37
2017-12-17T22:28:43.104Z,27.87
2017-12-17T22:31:10.933Z,27.92
2017-12-17T22:33:38.804Z,29.98
2017-12-17T22:36:06.684Z,29.12
2017-12-17T22:38:34.524Z,26.60
2017-12-17T22:41:02.331Z,29.75
2017-12-17T22:43:30.160Z,32.13
2017-12-17T22:45:57.985Z,32.38
2017-12-17T22:48:25.827Z,35.83
2017-12-17T22:50:53.695Z,31.95
2017-12-17T22:53:21.529Z,29.77
2017-12-17T22:55:49.363Z,33.42
2017-12-17T22:58:17.188Z,36.83
2017-12-17T23:00:45.038Z,34.35
2017-12-17T23:03:12.883Z,21.85
2017-12-17T23:05:40.704Z,35.00
2017-12-17T23:08:09.336Z,32.15
2017-12-17T23:10:37.203Z,35.40
2017-12-17T23:13:05.064Z,31.62
2017-12-17T23:15:32.888Z,32.58
2017-12-17T23:18:00.743Z,29.33
2017-12-17T23:20:28.559Z,27.75
2017-12-17T23:22:56.432Z,32.10
2017-12-17T23:25:24.265Z,33.67
2017-12-17T23:27:52.090Z,31.83
2017-12-17T23:30:19.953Z,30.73
2017-12-17T23:32:47.800Z,32.83
2017-12-17T23:35:15.664Z,34.75
2017-12-17T23:37:43.508Z,21.83
2017-12-17T23:40:11.429Z,33.03
2017-12-17T23:42:39.272Z,29.17
2017-12-17T23:45:07.155Z,30.23
2017-12-17T23:47:35.004Z,30.80
2017-12-17T23:50:02.842Z,26.83
2017-12-17T23:52:30.716Z,34.38
2017-12-17T23:54:58.581Z,33.88
2017-12-17T23:57:26.448Z,26.15
2017-12-17T23:59:54.333Z,28.87
